This is the latest recevied weather packets stored in our database for station/object K2ATL. If no packets are shown the sender has not sent any weather packets the latest 10 day(s).
| Time | Temp. | Humidity | Pressure | Rain* | Wind** | Luminosity | Snow |
|---|---|---|---|---|---|---|---|
| 1787472571 | 22.22° C | 78% | 1101 hPa | 0 mm | - | 0 W/m² | - |
| 1787472266 | 22.78° C | 77% | 1100.9 hPa | 0 mm | - | 0 W/m² | - |
| 1787471961 | 22.22° C | 78% | 1101 hPa | 0 mm | - | 0 W/m² | - |
| 1787471658 | 22.22° C | 78% | 1100.9 hPa | 0 mm | - | 0 W/m² | - |
| 1787471354 | 22.22° C | 79% | 1100.9 hPa | 0 mm | - | 0 W/m² | - |
| 1787471050 | 22.78° C | 78% | 1100.7 hPa | 0 mm | - | 0 W/m² | - |
| 1787470747 | 22.78° C | 77% | 1100.9 hPa | 0 mm | - | 0 W/m² | - |
| 1787470442 | 22.78° C | 78% | 1100.8 hPa | 0 mm | - | 0 W/m² | - |
| 1787470139 | 22.78° C | 78% | 1101 hPa | 0 mm | - | 0 W/m² | - |
| 1787469834 | 22.78° C | 76% | 1101 hPa | 0 mm | - | 0 W/m² | - |
| 1787469529 | 22.22° C | 78% | 1101.1 hPa | 0 mm | - | 0 W/m² | - |
| 1787469224 | 22.22° C | 79% | 1101.1 hPa | 0 mm | - | 0 W/m² | - |
| 1787468921 | 22.22° C | 78% | 1101.1 hPa | 0 mm | - | 0 W/m² | - |
| 1787468618 | 22.78° C | 76% | 1101.2 hPa | 0 mm | - | 0 W/m² | - |
| 1787468317 | 22.78° C | 76% | 1101 hPa | 0 mm | - | 0 W/m² | - |
| 1787468013 | 22.22° C | 77% | 1101 hPa | 0 mm | - | 0 W/m² | - |
| 1787467710 | 22.22° C | 78% | 1101 hPa | 0 mm | - | 0 W/m² | - |
| 1787467410 | 21.67° C | 78% | 1101.1 hPa | 0 mm | - | 0 W/m² | - |
| 1787467106 | 21.67° C | 81% | 1101 hPa | 0 mm | - | 0 W/m² | - |
| 1787466801 | 22.22° C | 82% | 1101 hPa | 0 mm | - | 0 W/m² | - |
| 1787466496 | 23.33° C | 77% | 1101 hPa | 0 mm | - | 0 W/m² | - |
| 1787466192 | 23.89° C | 72% | 1101.2 hPa | 0 mm | - | 0 W/m² | - |
| 1787465888 | 23.89° C | 71% | 1101.2 hPa | 0 mm | - | 0 W/m² | - |
| 1787465583 | 23.89° C | 71% | 1101.1 hPa | 0 mm | - | 0 W/m² | - |
| 1787465278 | 23.89° C | 70% | 1101.4 hPa | 0 mm | - | 0 W/m² | - |
* Rain latest hour (hover to see other rain measurements)
** Current wind speed in m/s (hover to see current wind gust speed)